Time;durP1;ratioP1;P1;durP2;ratioP2;P2;SDS_P1;SDS_P2;PMS_P1;PMS_P2;Temp;Humidity;BMP_temperature;BMP_pressure;BME280_temperature;BME280_humidity;BME280_pressure;Samples;Min_cycle;Max_cycle;Signal;HPM_P1;HPM_P2
2021/09/07 00:00:34;;;;;;;;;;;;;;;11.64;52.07;101954.18;461877;114;921565;-74
2021/09/07 00:01:38;;;;;;;;;;;;;;;11.63;51.77;101947.05;463339;112;921774;-74
2021/09/07 00:02:42;;;;;;;;;;;;;;;11.60;51.82;101952.87;462393;112;921604;-73
2021/09/07 00:03:47;;;;;;;;;;;;;;;11.58;51.90;101950.31;464154;114;922232;-74
2021/09/07 00:04:50;;;;;;;;;;;;;;;11.58;52.03;101963.98;459999;115;921483;-74
2021/09/07 00:05:54;;;;;;;;;;;;;;;11.57;51.92;101958.72;462333;112;921813;-73
2021/09/07 00:06:58;;;;;;;;;;;;;;;11.55;51.64;101960.78;471131;112;921962;-74
2021/09/07 00:08:02;;;;;;;;;;;;;;;11.55;51.63;101955.32;472041;112;921603;-74
2021/09/07 00:09:05;;;;;;;;;;;;;;;11.55;51.72;101960.78;471916;112;921541;-73
2021/09/07 00:10:10;;;;;;;;;;;;;;;11.55;51.77;101967.09;465547;112;921634;-74
2021/09/07 00:11:16;;;;;;;;;;;;;;;11.55;51.86;101967.09;466777;112;921635;-75
2021/09/07 00:12:20;;;;;;;;;;;;;;;11.57;51.92;101964.19;467528;112;921610;-74
2021/09/07 00:13:25;;;;;;;;;;;;;;;11.55;51.85;101967.09;457152;114;922148;-75
2021/09/07 00:14:30;;;;;;;;;;;;;;;11.56;52.10;101963.34;455947;114;921727;-74
2021/09/07 00:15:34;;;;;;;;;;;;;;;11.55;52.26;101968.98;463147;114;921693;-73
2021/09/07 00:16:40;;;;;;;;;;;;;;;11.55;52.10;101964.36;455483;116;921888;-75
2021/09/07 00:17:43;;;;;;;;;;;;;;;11.56;52.12;101968.80;452625;114;921674;-73
2021/09/07 00:18:47;;;;;;;;;;;;;;;11.58;52.03;101968.59;466352;114;921669;-74
2021/09/07 00:19:51;;;;;;;;;;;;;;;11.58;52.05;101974.05;463025;114;921666;-74
2021/09/07 00:20:54;;;;;;;;;;;;;;;11.59;51.83;101973.02;462574;112;921749;-74
2021/09/07 00:21:57;;;;;;;;;;;;;;;11.59;51.77;101962.09;471388;112;921571;-75
2021/09/07 00:23:01;;;;;;;;;;;;;;;11.60;51.92;101974.72;470628;112;921561;-75
2021/09/07 00:24:04;;;;;;;;;;;;;;;11.61;52.38;101968.23;469528;112;921615;-74
2021/09/07 00:25:09;;;;;;;;;;;;;;;11.62;52.31;101968.05;470260;112;921599;-74
2021/09/07 00:26:13;;;;;;;;;;;;;;;11.64;52.34;101965.95;470335;112;921534;-74
2021/09/07 00:27:16;;;;;;;;;;;;;;;11.66;52.68;101973.97;470993;112;921589;-74
2021/09/07 00:28:21;;;;;;;;;;;;;;;11.67;52.67;101972.95;469814;112;921726;-74
2021/09/07 00:29:25;;;;;;;;;;;;;;;11.66;52.28;101968.52;471238;111;921972;-74
2021/09/07 00:30:30;;;;;;;;;;;;;;;11.66;52.37;101971.24;472117;112;921496;-74
2021/09/07 00:31:33;;;;;;;;;;;;;;;11.66;52.33;101963.90;471499;112;921777;-74
2021/09/07 00:32:36;;;;;;;;;;;;;;;11.66;52.53;101963.90;470654;112;921558;-74
2021/09/07 00:33:40;;;;;;;;;;;;;;;11.65;52.14;101969.55;472026;112;921618;-73
2021/09/07 00:34:43;;;;;;;;;;;;;;;11.65;52.13;101977.73;471384;112;921643;-73
2021/09/07 00:35:47;;;;;;;;;;;;;;;11.63;52.41;101969.72;470940;112;921620;-75
2021/09/07 00:36:50;;;;;;;;;;;;;;;11.63;52.27;101972.45;471474;112;921577;-74
2021/09/07 00:37:54;;;;;;;;;;;;;;;11.63;52.16;101977.09;470585;112;921553;-74
2021/09/07 00:38:57;;;;;;;;;;;;;;;11.63;52.25;101979.83;471185;112;921641;-74
2021/09/07 00:40:00;;;;;;;;;;;;;;;11.64;52.54;101982.35;471580;112;921547;-74
2021/09/07 00:41:03;;;;;;;;;;;;;;;11.65;52.63;101977.73;470567;112;921632;-73
2021/09/07 00:42:07;;;;;;;;;;;;;;;11.65;52.75;101986.78;470668;112;921690;-73
2021/09/07 00:43:10;;;;;;;;;;;;;;;11.64;52.33;101979.62;463173;112;921671;-74
2021/09/07 00:44:15;;;;;;;;;;;;;;;11.65;52.18;101989.52;461552;113;921635;-73
2021/09/07 00:45:18;;;;;;;;;;;;;;;11.65;52.33;101984.05;467379;112;921533;-75
2021/09/07 00:46:22;;;;;;;;;;;;;;;11.64;52.36;101982.35;469943;112;921549;-75
2021/09/07 00:47:25;;;;;;;;;;;;;;;11.61;52.37;101984.62;461782;113;921571;-74
2021/09/07 00:48:28;;;;;;;;;;;;;;;11.61;52.35;101987.36;470942;112;921772;-74
2021/09/07 00:49:32;;;;;;;;;;;;;;;11.58;52.12;101983.09;458398;114;921581;-74
2021/09/07 00:50:35;;;;;;;;;;;;;;;11.58;52.13;101988.56;461590;114;921569;-73
2021/09/07 00:51:39;;;;;;;;;;;;;;;11.58;52.21;101982.25;464515;112;921609;-75
2021/09/07 00:52:44;;;;;;;;;;;;;;;11.57;52.06;101983.30;461779;114;921524;-73
2021/09/07 00:53:48;;;;;;;;;;;;;;;11.57;52.44;101991.50;463742;114;921666;-74
2021/09/07 00:54:52;;;;;;;;;;;;;;;11.58;52.52;101998.64;462159;113;922541;-74
2021/09/07 00:55:57;;;;;;;;;;;;;;;11.59;52.42;101992.14;464523;112;921525;-75
2021/09/07 00:57:02;;;;;;;;;;;;;;;11.61;52.39;101990.94;471999;112;921609;-74
2021/09/07 00:58:11;;;;;;;;;;;;;;;11.63;52.22;101997.04;460713;112;921646;-74
2021/09/07 00:59:12;;;;;;;;;;;;;;;11.64;51.52;101998.74;463273;113;921967;-74
2021/09/07 01:00:15;;;;;;;;;;;;;;;11.63;51.64;101990.76;466981;112;921585;-74
2021/09/07 01:01:19;;;;;;;;;;;;;;;11.63;51.32;101997.04;462385;112;921702;-74
2021/09/07 01:02:23;;;;;;;;;;;;;;;11.64;51.14;101995.16;462356;114;921601;-75
2021/09/07 01:03:27;;;;;;;;;;;;;;;11.63;51.11;102001.69;463700;114;921658;-74
2021/09/07 01:04:36;;;;;;;;;;;;;;;11.61;50.80;101990.94;462433;113;921937;-73
2021/09/07 01:05:38;;;;;;;;;;;;;;;11.59;51.02;101992.14;465142;112;921599;-74
2021/09/07 01:06:43;;;;;;;;;;;;;;;11.57;51.21;101997.81;463435;114;922077;-74
2021/09/07 01:07:46;;;;;;;;;;;;;;;11.58;51.43;102004.10;461624;114;921533;-74
2021/09/07 01:08:50;;;;;;;;;;;;;;;11.58;51.69;101998.64;462335;112;921628;-73
2021/09/07 01:09:53;;;;;;;;;;;;;;;11.60;51.94;101999.31;469347;112;921544;-73
2021/09/07 01:10:58;;;;;;;;;;;;;;;11.60;51.83;101997.43;470290;112;921928;-74
2021/09/07 01:12:02;;;;;;;;;;;;;;;11.60;52.27;101996.58;464778;113;921585;-73
2021/09/07 01:13:06;;;;;;;;;;;;;;;11.59;52.26;102001.19;470551;112;921660;-73
2021/09/07 01:14:09;;;;;;;;;;;;;;;11.58;52.48;101988.56;471385;111;921569;-74
2021/09/07 01:15:13;;;;;;;;;;;;;;;11.57;52.78;101997.81;464675;113;921504;-75
2021/09/07 01:16:17;;;;;;;;;;;;;;;11.55;53.06;101999.87;461479;112;921586;-73
2021/09/07 01:17:21;;;;;;;;;;;;;;;11.54;52.75;101994.59;471041;112;921578;-73
2021/09/07 01:18:25;;;;;;;;;;;;;;;11.53;52.31;102007.39;470513;112;921522;-74
2021/09/07 01:19:29;;;;;;;;;;;;;;;11.53;52.61;102007.39;465968;113;921513;-73
2021/09/07 01:20:33;;;;;;;;;;;;;;;11.52;52.08;102002.14;460023;115;921506;-74
2021/09/07 01:21:36;;;;;;;;;;;;;;;11.51;52.06;102004.02;464018;113;921810;-74
2021/09/07 01:22:40;;;;;;;;;;;;;;;11.51;52.04;102005.91;462734;113;921683;-76
2021/09/07 01:23:44;;;;;;;;;;;;;;;11.51;51.94;102004.02;465662;112;921625;-73
2021/09/07 01:24:48;;;;;;;;;;;;;;;11.51;52.35;102003.17;471469;112;921636;-74
2021/09/07 01:25:52;;;;;;;;;;;;;;;11.50;52.75;102007.78;471085;112;921485;-73
2021/09/07 01:26:55;;;;;;;;;;;;;;;11.51;52.67;102011.37;471197;112;921615;-74
2021/09/07 01:27:58;;;;;;;;;;;;;;;11.51;52.75;102009.48;470224;112;921552;-74
2021/09/07 01:29:04;;;;;;;;;;;;;;;11.52;52.68;102010.34;469549;112;921679;-73
2021/09/07 01:30:08;;;;;;;;;;;;;;;11.52;52.54;102010.34;471510;112;921604;-74
2021/09/07 01:31:12;;;;;;;;;;;;;;;11.52;52.57;102011.16;460802;114;921647;-75
2021/09/07 01:32:17;;;;;;;;;;;;;;;11.54;52.73;102016.44;471281;112;921547;-72
2021/09/07 01:33:20;;;;;;;;;;;;;;;11.55;52.76;102015.41;472111;112;921666;-74
2021/09/07 01:34:24;;;;;;;;;;;;;;;11.55;52.83;102020.88;461380;114;921734;-74
2021/09/07 01:35:27;;;;;;;;;;;;;;;11.55;53.07;102018.14;464983;114;921695;-72
2021/09/07 01:36:31;;;;;;;;;;;;;;;11.58;53.22;102020.48;461815;114;921499;-74
2021/09/07 01:37:40;;;;;;;;;;;;;;;11.59;53.41;102022.20;469638;112;921419;-74
2021/09/07 01:38:44;;;;;;;;;;;;;;;11.59;53.45;102023.05;468193;112;921798;-74
2021/09/07 01:39:47;;;;;;;;;;;;;;;11.61;53.50;102020.13;468960;112;921633;-74
2021/09/07 01:40:51;;;;;;;;;;;;;;;11.63;53.54;102024.36;470640;112;921632;-74
2021/09/07 01:41:55;;;;;;;;;;;;;;;11.65;53.74;102024.18;467868;112;921652;-74
2021/09/07 01:42:58;;;;;;;;;;;;;;;11.67;53.20;102025.70;473052;111;921433;-75
2021/09/07 01:44:01;;;;;;;;;;;;;;;11.69;53.36;102025.50;464889;113;921557;-74
2021/09/07 01:45:05;;;;;;;;;;;;;;;11.71;53.62;102026.17;472319;111;921572;-74
2021/09/07 01:46:09;;;;;;;;;;;;;;;11.75;53.77;102022.05;472958;111;921493;-74
2021/09/07 01:47:13;;;;;;;;;;;;;;;11.79;53.89;102030.75;472580;111;921569;-74
2021/09/07 01:48:17;;;;;;;;;;;;;;;11.81;54.06;102023.19;464981;112;921882;-73
2021/09/07 01:49:20;;;;;;;;;;;;;;;11.83;54.15;102026.59;472501;111;921495;-73
2021/09/07 01:50:24;;;;;;;;;;;;;;;11.83;54.20;102034.79;471118;111;921560;-74
2021/09/07 01:51:27;;;;;;;;;;;;;;;11.84;54.34;102031.88;473266;111;921531;-74
2021/09/07 01:52:31;;;;;;;;;;;;;;;11.86;54.08;102034.41;472796;111;921537;-74
2021/09/07 01:53:36;;;;;;;;;;;;;;;11.84;52.88;102031.88;463506;113;921651;-74
2021/09/07 01:54:44;;;;;;;;;;;;;;;11.83;52.31;102035.64;469343;112;921665;-73
2021/09/07 01:55:49;;;;;;;;;;;;;;;11.83;52.47;102035.64;466468;114;921615;-73
2021/09/07 01:56:53;;;;;;;;;;;;;;;11.83;52.55;102029.33;454512;115;921530;-72
2021/09/07 01:57:57;;;;;;;;;;;;;;;11.83;52.20;102037.52;459640;114;921604;-74
2021/09/07 01:59:00;;;;;;;;;;;;;;;11.82;51.92;102030.36;472201;112;921576;-73
2021/09/07 02:00:04;;;;;;;;;;;;;;;11.83;51.50;102037.52;472458;112;921632;-74
2021/09/07 02:01:10;;;;;;;;;;;;;;;11.82;51.44;102022.16;465189;112;921634;-75
2021/09/07 02:02:14;;;;;;;;;;;;;;;11.81;51.50;102039.58;466579;112;921710;-74
2021/09/07 02:03:18;;;;;;;;;;;;;;;11.79;51.67;102045.26;473302;111;921430;-75
2021/09/07 02:04:21;;;;;;;;;;;;;;;11.80;51.77;102041.47;464814;112;921535;-73
2021/09/07 02:05:26;;;;;;;;;;;;;;;11.80;51.38;102036.00;473421;111;921991;-74
2021/09/07 02:06:29;;;;;;;;;;;;;;;11.80;51.43;102040.64;472891;111;921540;-74
2021/09/07 02:07:33;;;;;;;;;;;;;;;11.80;51.72;102032.45;473172;111;921652;-73
2021/09/07 02:08:36;;;;;;;;;;;;;;;11.79;51.43;102030.75;472746;111;921693;-74
2021/09/07 02:09:39;;;;;;;;;;;;;;;11.78;50.25;102031.77;467557;112;921681;-75
2021/09/07 02:10:44;;;;;;;;;;;;;;;11.76;50.39;102029.22;463353;114;921566;-74
2021/09/07 02:11:49;;;;;;;;;;;;;;;11.75;50.14;102027.52;472406;111;921521;-74
2021/09/07 02:12:52;;;;;;;;;;;;;;;11.73;50.12;102023.26;471761;111;921576;-73
2021/09/07 02:13:55;;;;;;;;;;;;;;;11.70;50.07;102025.31;471832;111;921492;-75
2021/09/07 02:14:58;;;;;;;;;;;;;;;11.69;50.00;102028.23;464002;112;921542;-74
2021/09/07 02:16:03;;;;;;;;;;;;;;;11.68;49.84;102029.29;463999;114;921545;-74
2021/09/07 02:17:08;;;;;;;;;;;;;;;11.66;49.70;102017.69;472928;111;921529;-72
2021/09/07 02:18:12;;;;;;;;;;;;;;;11.64;49.81;102023.33;472905;111;921577;-73
2021/09/07 02:19:15;;;;;;;;;;;;;;;11.63;49.67;102021.62;463170;114;921592;-74
2021/09/07 02:20:18;;;;;;;;;;;;;;;11.62;49.67;102019.11;469160;112;922538;-74
2021/09/07 02:21:23;;;;;;;;;;;;;;;11.62;49.74;102021.84;473081;111;921546;-73
2021/09/07 02:22:26;;;;;;;;;;;;;;;11.61;49.53;102017.41;466503;113;921610;-72
2021/09/07 02:23:31;;;;;;;;;;;;;;;11.58;49.34;102031.42;472539;111;921487;-73
2021/09/07 02:24:34;;;;;;;;;;;;;;;11.54;49.43;102022.76;472782;111;921641;-72
2021/09/07 02:25:38;;;;;;;;;;;;;;;11.52;49.57;102021.27;472786;111;921713;-73
2021/09/07 02:26:41;;;;;;;;;;;;;;;11.49;49.72;102027.08;472924;111;921553;-73
2021/09/07 02:27:45;;;;;;;;;;;;;;;11.47;49.84;102024.52;464936;114;921630;-73
2021/09/07 02:28:48;;;;;;;;;;;;;;;11.45;49.88;102023.88;465287;113;921495;-74
2021/09/07 02:29:52;;;;;;;;;;;;;;;11.46;50.02;102027.47;468545;111;921607;-73
2021/09/07 02:30:55;;;;;;;;;;;;;;;11.44;50.04;102030.37;464235;114;921667;-74
2021/09/07 02:31:59;;;;;;;;;;;;;;;11.44;50.13;102030.37;465119;113;921554;-74
2021/09/07 02:33:04;;;;;;;;;;;;;;;11.44;50.19;102030.37;461848;114;921564;-74
2021/09/07 02:34:08;;;;;;;;;;;;;;;11.43;50.28;102025.94;465886;113;921699;-75
2021/09/07 02:35:11;;;;;;;;;;;;;;;11.44;50.27;102043.17;468773;112;921477;-75
2021/09/07 02:36:15;;;;;;;;;;;;;;;11.41;50.38;102033.45;466668;113;921488;-74
2021/09/07 02:37:18;;;;;;;;;;;;;;;11.40;50.46;102036.40;461546;114;921694;-74
2021/09/07 02:38:21;;;;;;;;;;;;;;;11.39;50.60;102043.73;470112;112;921589;-74
2021/09/07 02:39:25;;;;;;;;;;;;;;;11.38;50.52;102035.72;471313;112;922011;-73
2021/09/07 02:40:29;;;;;;;;;;;;;;;11.33;50.66;102039.01;470686;111;921542;-73
2021/09/07 02:41:32;;;;;;;;;;;;;;;11.32;50.95;102040.04;464107;112;921533;-75
2021/09/07 02:42:37;;;;;;;;;;;;;;;11.31;51.16;102041.06;460907;114;921538;-73
2021/09/07 02:43:41;;;;;;;;;;;;;;;11.32;51.23;102041.91;464285;114;921587;-74
2021/09/07 02:44:44;;;;;;;;;;;;;;;11.29;51.07;102041.27;471318;112;921599;-75
2021/09/07 02:45:49;;;;;;;;;;;;;;;11.29;51.08;102045.88;470208;112;921706;-74
2021/09/07 02:46:53;;;;;;;;;;;;;;;11.26;51.07;102044.35;471306;111;921506;-74
2021/09/07 02:47:57;;;;;;;;;;;;;;;11.23;51.10;102043.88;460656;114;921521;-74
2021/09/07 02:49:00;;;;;;;;;;;;;;;11.22;51.14;102056.68;465239;112;921542;-74
2021/09/07 02:50:03;;;;;;;;;;;;;;;11.19;51.22;102048.02;469771;112;921655;-73
2021/09/07 02:51:06;;;;;;;;;;;;;;;11.16;51.17;102049.22;469693;112;921436;-74
2021/09/07 02:52:12;;;;;;;;;;;;;;;11.14;51.18;102053.15;463521;112;921582;-74
2021/09/07 02:53:15;;;;;;;;;;;;;;;11.14;51.18;102055.88;462984;112;921631;-74
2021/09/07 02:54:18;;;;;;;;;;;;;;;11.12;51.24;102058.81;470704;112;921611;-75
2021/09/07 02:55:22;;;;;;;;;;;;;;;11.13;51.37;102063.25;469924;112;921552;-72
2021/09/07 02:56:25;;;;;;;;;;;;;;;11.13;51.46;102060.52;463503;114;921620;-74
2021/09/07 02:57:29;;;;;;;;;;;;;;;11.13;51.44;102057.79;470923;112;921570;-73
2021/09/07 02:58:32;;;;;;;;;;;;;;;11.13;51.44;102057.79;469560;112;921880;-74
2021/09/07 02:59:36;;;;;;;;;;;;;;;11.13;51.51;102067.86;471308;112;922187;-74
2021/09/07 03:00:41;;;;;;;;;;;;;;;11.13;51.60;102059.67;470768;111;921561;-73
2021/09/07 03:01:44;;;;;;;;;;;;;;;11.14;51.58;102058.61;470700;112;921610;-73
2021/09/07 03:02:48;;;;;;;;;;;;;;;11.14;51.82;102064.07;470905;112;921628;-73
2021/09/07 03:03:52;;;;;;;;;;;;;;;11.14;52.05;102064.92;470515;112;921553;-74
2021/09/07 03:04:56;;;;;;;;;;;;;;;11.15;52.08;102063.05;471262;112;921553;-73
2021/09/07 03:06:00;;;;;;;;;;;;;;;11.15;52.19;102066.63;470748;112;921602;-73
2021/09/07 03:07:04;;;;;;;;;;;;;;;11.16;52.58;102070.20;470776;112;921710;-73
2021/09/07 03:08:07;;;;;;;;;;;;;;;11.16;52.29;102065.60;471645;112;921826;-73
2021/09/07 03:09:10;;;;;;;;;;;;;;;11.16;52.32;102068.33;470768;112;921839;-73
2021/09/07 03:10:13;;;;;;;;;;;;;;;11.16;52.69;102065.60;470594;112;922091;-73
2021/09/07 03:11:17;;;;;;;;;;;;;;;11.19;52.74;102067.13;462780;114;921722;-74
2021/09/07 03:12:20;;;;;;;;;;;;;;;11.20;52.21;102071.53;463562;113;921526;-73
2021/09/07 03:13:24;;;;;;;;;;;;;;;11.19;52.03;102065.22;470813;112;921986;-73
2021/09/07 03:14:29;;;;;;;;;;;;;;;11.20;52.31;102066.08;463011;112;921521;-73
2021/09/07 03:15:34;;;;;;;;;;;;;;;11.19;52.03;102073.41;462828;114;921545;-73
2021/09/07 03:16:37;;;;;;;;;;;;;;;11.18;51.93;102069.01;461670;112;921500;-72
2021/09/07 03:17:42;;;;;;;;;;;;;;;11.17;52.04;102071.91;461253;114;921656;-74
2021/09/07 03:18:45;;;;;;;;;;;;;;;11.15;52.05;102074.81;461916;114;921697;-74
2021/09/07 03:19:48;;;;;;;;;;;;;;;11.15;52.19;102080.28;465927;112;921453;-73
2021/09/07 03:20:52;;;;;;;;;;;;;;;11.16;52.02;102083.86;464550;112;921544;-74
2021/09/07 03:21:56;;;;;;;;;;;;;;;11.15;51.74;102084.88;460628;112;921527;-73
2021/09/07 03:23:00;;;;;;;;;;;;;;;11.13;51.74;102084.23;471526;112;921627;-74
2021/09/07 03:24:04;;;;;;;;;;;;;;;11.12;52.04;102088.84;470474;112;921518;-72
2021/09/07 03:25:08;;;;;;;;;;;;;;;11.10;52.00;102093.63;470872;111;921541;-74
2021/09/07 03:26:12;;;;;;;;;;;;;;;11.11;51.54;102089.02;470401;112;921579;-74
2021/09/07 03:27:15;;;;;;;;;;;;;;;11.10;51.55;102087.31;471014;112;921529;-74
2021/09/07 03:28:19;;;;;;;;;;;;;;;11.10;51.73;102090.89;471689;112;921469;-74
2021/09/07 03:29:22;;;;;;;;;;;;;;;11.11;51.81;102087.14;470930;112;922115;-74
2021/09/07 03:30:25;;;;;;;;;;;;;;;11.12;51.73;102093.45;464121;114;921574;-73
2021/09/07 03:31:29;;;;;;;;;;;;;;;11.13;51.81;102095.16;461287;114;921713;-75
2021/09/07 03:32:32;;;;;;;;;;;;;;;11.14;51.76;102094.09;470696;111;921622;-74
2021/09/07 03:33:36;;;;;;;;;;;;;;;11.15;51.65;102096.66;461844;115;921668;-74
2021/09/07 03:34:39;;;;;;;;;;;;;;;11.17;51.82;102100.06;463190;114;921633;-75
2021/09/07 03:35:43;;;;;;;;;;;;;;;11.18;52.18;102098.19;465540;114;921588;-74
2021/09/07 03:36:47;;;;;;;;;;;;;;;11.18;52.18;102100.92;461875;113;921654;-73
2021/09/07 03:37:50;;;;;;;;;;;;;;;11.18;52.34;102093.58;461496;113;922066;-74
2021/09/07 03:38:54;;;;;;;;;;;;;;;11.19;52.60;102105.35;470684;113;921518;-74
2021/09/07 03:39:57;;;;;;;;;;;;;;;11.19;52.66;102100.71;470348;112;921649;-74
2021/09/07 03:41:01;;;;;;;;;;;;;;;11.19;52.72;102100.71;469738;112;921584;-74
2021/09/07 03:42:05;;;;;;;;;;;;;;;11.18;52.64;102100.92;468609;113;921538;-75
2021/09/07 03:43:08;;;;;;;;;;;;;;;11.16;52.69;102106.55;469025;113;921675;-74
2021/09/07 03:44:12;;;;;;;;;;;;;;;11.16;52.86;102098.36;467225;112;922055;-74
2021/09/07 03:45:17;;;;;;;;;;;;;;;11.15;53.07;102102.11;467360;113;921573;-75
2021/09/07 03:46:22;;;;;;;;;;;;;;;11.15;53.23;102110.30;466934;113;921597;-74
2021/09/07 03:47:26;;;;;;;;;;;;;;;11.17;53.41;102110.13;466659;112;921570;-75
2021/09/07 03:48:29;;;;;;;;;;;;;;;11.18;53.47;102109.96;462789;113;921573;-74
2021/09/07 03:49:33;;;;;;;;;;;;;;;11.19;53.48;102111.63;460041;115;921624;-74
2021/09/07 03:50:37;;;;;;;;;;;;;;;11.20;53.63;102109.75;459127;114;921725;-75
2021/09/07 03:51:41;;;;;;;;;;;;;;;11.19;53.84;102113.55;449732;115;921789;-73
2021/09/07 03:52:45;;;;;;;;;;;;;;;11.17;53.96;102110.98;454160;115;921644;-75
2021/09/07 03:53:51;;;;;;;;;;;;;;;11.17;54.16;102112.86;459616;115;921689;-75
2021/09/07 03:54:56;;;;;;;;;;;;;;;11.16;54.32;102105.70;458918;114;921562;-75
2021/09/07 03:56:01;;;;;;;;;;;;;;;11.17;54.45;102118.32;469452;112;921613;-75
2021/09/07 03:57:04;;;;;;;;;;;;;;;11.17;54.55;102115.59;468499;112;921578;-74
2021/09/07 03:58:09;;;;;;;;;;;;;;;11.16;54.69;102113.89;461395;114;921688;-75
2021/09/07 03:59:13;;;;;;;;;;;;;;;11.15;54.79;102120.38;464577;113;921589;-75
2021/09/07 04:00:18;;;;;;;;;;;;;;;11.12;54.88;102126.20;461094;114;921625;-74
2021/09/07 04:01:22;;;;;;;;;;;;;;;11.09;54.94;102121.95;461330;115;921541;-74
2021/09/07 04:02:27;;;;;;;;;;;;;;;11.07;55.04;102123.17;460848;115;921541;-76
2021/09/07 04:03:30;;;;;;;;;;;;;;;11.04;55.18;102126.25;459987;114;921591;-75
2021/09/07 04:04:35;;;;;;;;;;;;;;;11.02;55.38;102122.87;467924;113;921449;-74
2021/09/07 04:05:39;;;;;;;;;;;;;;;11.01;55.52;102129.35;468793;112;921522;-75
2021/09/07 04:06:43;;;;;;;;;;;;;;;11.01;55.61;102123.89;458040;115;921557;-73
2021/09/07 04:07:47;;;;;;;;;;;;;;;11.00;55.75;102123.04;457377;113;921658;-75
2021/09/07 04:08:51;;;;;;;;;;;;;;;11.00;55.85;102124.91;462224;114;921653;-76
2021/09/07 04:09:54;;;;;;;;;;;;;;;10.97;56.01;102123.38;462808;113;921550;-75
2021/09/07 04:10:58;;;;;;;;;;;;;;;10.96;56.19;102127.16;460819;115;921237;-75
2021/09/07 04:12:01;;;;;;;;;;;;;;;10.95;56.36;102120.00;460984;114;921653;-76
2021/09/07 04:13:05;;;;;;;;;;;;;;;10.96;56.45;102126.31;460480;115;921426;-75
2021/09/07 04:14:10;;;;;;;;;;;;;;;10.95;56.51;102135.52;460726;115;921530;-75
2021/09/07 04:15:13;;;;;;;;;;;;;;;10.94;56.61;102126.48;460726;115;922167;-74
2021/09/07 04:16:17;;;;;;;;;;;;;;;10.95;56.67;102130.92;460925;115;921630;-73
2021/09/07 04:17:21;;;;;;;;;;;;;;;10.96;56.72;102134.50;460443;115;921492;-74
2021/09/07 04:18:25;;;;;;;;;;;;;;;10.96;56.74;102129.89;460166;115;921704;-73
2021/09/07 04:19:29;;;;;;;;;;;;;;;10.97;56.68;102128.84;461285;114;921588;-73
2021/09/07 04:20:34;;;;;;;;;;;;;;;10.99;56.72;102125.94;460080;115;921574;-78
2021/09/07 04:21:37;;;;;;;;;;;;;;;10.99;56.69;102126.79;460628;115;921703;-74
2021/09/07 04:22:43;;;;;;;;;;;;;;;11.00;56.73;102128.50;461695;114;921640;-75
2021/09/07 04:23:46;;;;;;;;;;;;;;;11.02;56.79;102128.33;460860;114;921575;-77
2021/09/07 04:24:49;;;;;;;;;;;;;;;11.03;56.76;102125.39;460215;114;921704;-72
2021/09/07 04:25:52;;;;;;;;;;;;;;;11.04;56.80;102129.83;460432;115;921524;-73
2021/09/07 04:26:57;;;;;;;;;;;;;;;11.06;56.81;102125.05;460669;115;921679;-73
2021/09/07 04:28:00;;;;;;;;;;;;;;;11.05;56.73;102119.77;460178;114;921795;-73
2021/09/07 04:29:04;;;;;;;;;;;;;;;11.05;56.77;102119.77;460141;115;921615;-75
2021/09/07 04:30:08;;;;;;;;;;;;;;;11.07;56.78;102123.17;460233;115;921603;-74
2021/09/07 04:31:13;;;;;;;;;;;;;;;11.09;56.88;102121.09;461584;114;921357;-75
2021/09/07 04:32:16;;;;;;;;;;;;;;;11.12;56.97;102126.20;460732;115;921718;-73
2021/09/07 04:33:19;;;;;;;;;;;;;;;11.14;56.84;102126.86;461758;115;921696;-74
2021/09/07 04:34:22;;;;;;;;;;;;;;;11.17;56.75;102115.59;460537;115;921666;-73
2021/09/07 04:35:26;;;;;;;;;;;;;;;11.18;56.68;102123.61;451699;116;921664;-74
2021/09/07 04:36:29;;;;;;;;;;;;;;;11.22;56.75;102126.81;452517;115;921593;-73
2021/09/07 04:37:32;;;;;;;;;;;;;;;11.24;56.71;102125.62;460278;115;922140;-73
2021/09/07 04:38:35;;;;;;;;;;;;;;;11.26;56.67;102129.00;460207;115;921955;-74
2021/09/07 04:39:38;;;;;;;;;;;;;;;11.31;56.56;102122.98;461189;114;921587;-72
2021/09/07 04:40:41;;;;;;;;;;;;;;;11.32;56.38;102126.56;455725;115;921660;-72
2021/09/07 04:41:45;;;;;;;;;;;;;;;11.34;56.32;102124.52;453904;115;921631;-73
2021/09/07 04:42:49;;;;;;;;;;;;;;;11.35;56.37;102128.95;460608;114;921800;-73
2021/09/07 04:43:54;;;;;;;;;;;;;;;11.38;56.40;102128.58;458949;115;921867;-74
2021/09/07 04:44:58;;;;;;;;;;;;;;;11.41;56.39;102128.23;470303;112;921627;-72
2021/09/07 04:46:02;;;;;;;;;;;;;;;11.43;55.91;102131.60;463106;115;921641;-73
2021/09/07 04:47:06;;;;;;;;;;;;;;;11.45;55.94;102132.28;462149;113;921576;-72
2021/09/07 04:48:10;;;;;;;;;;;;;;;11.46;56.00;102131.25;456575;113;922135;-72
2021/09/07 04:49:13;;;;;;;;;;;;;;;11.48;56.02;102132.75;456820;113;921646;-72
2021/09/07 04:50:16;;;;;;;;;;;;;;;11.50;55.98;102136.16;468977;113;921742;-72
2021/09/07 04:51:20;;;;;;;;;;;;;;;11.52;55.85;102139.54;468836;112;921595;-73
2021/09/07 04:52:23;;;;;;;;;;;;;;;11.55;55.35;102136.46;462416;113;921410;-74
2021/09/07 04:53:26;;;;;;;;;;;;;;;11.58;54.97;102135.23;454600;117;921583;-74
2021/09/07 04:54:29;;;;;;;;;;;;;;;11.60;55.07;102141.37;454917;115;921593;-72
2021/09/07 04:55:32;;;;;;;;;;;;;;;11.61;54.82;102140.34;461294;114;922036;-73
2021/09/07 04:56:36;;;;;;;;;;;;;;;11.62;54.37;102136.58;462008;115;921521;-74
2021/09/07 04:57:39;;;;;;;;;;;;;;;11.65;54.25;102141.66;461913;114;921618;-72
2021/09/07 04:58:42;;;;;;;;;;;;;;;11.65;54.26;102138.93;462876;114;921644;-72
2021/09/07 04:59:45;;;;;;;;;;;;;;;11.66;54.00;102136.02;460296;114;921589;-72
2021/09/07 05:00:48;;;;;;;;;;;;;;;11.68;54.02;102138.58;467864;113;921644;-70
2021/09/07 05:01:52;;;;;;;;;;;;;;;11.69;54.06;102143.84;468651;113;921722;-74
2021/09/07 05:02:55;;;;;;;;;;;;;;;11.71;53.98;102140.93;468400;112;921749;-73
2021/09/07 05:03:59;;;;;;;;;;;;;;;11.74;53.73;102140.61;467959;112;921513;-73
2021/09/07 05:05:03;;;;;;;;;;;;;;;11.77;53.63;102134.77;468637;113;921703;-73
2021/09/07 05:06:07;;;;;;;;;;;;;;;11.78;53.53;102136.47;467882;112;921641;-73
2021/09/07 05:07:10;;;;;;;;;;;;;;;11.81;53.44;102141.55;460501;114;921618;-72
2021/09/07 05:08:13;;;;;;;;;;;;;;;11.83;53.38;102136.77;461580;113;921666;-73
2021/09/07 05:09:16;;;;;;;;;;;;;;;11.85;53.37;102131.12;467358;112;921976;-72
2021/09/07 05:10:20;;;;;;;;;;;;;;;11.88;53.38;102133.47;463518;114;921579;-72
2021/09/07 05:11:23;;;;;;;;;;;;;;;11.90;53.30;102140.45;460014;115;921620;-72
2021/09/07 05:12:27;;;;;;;;;;;;;;;11.90;53.29;102143.19;469720;113;921531;-73
2021/09/07 05:13:30;;;;;;;;;;;;;;;11.91;53.37;102142.13;469989;112;921571;-73
2021/09/07 05:14:33;;;;;;;;;;;;;;;11.92;53.47;102141.10;469945;112;921537;-72
2021/09/07 05:15:37;;;;;;;;;;;;;;;11.94;53.38;102144.52;470555;113;921669;-73
2021/09/07 05:16:40;;;;;;;;;;;;;;;11.96;53.30;102138.87;471046;113;921466;-74
2021/09/07 05:17:44;;;;;;;;;;;;;;;11.98;53.07;102145.83;469987;113;921589;-73
2021/09/07 05:18:47;;;;;;;;;;;;;;;12.00;52.94;102141.04;461172;115;921649;-73
2021/09/07 05:19:50;;;;;;;;;;;;;;;12.03;52.81;102139.80;470392;113;921675;-73
2021/09/07 05:20:54;;;;;;;;;;;;;;;12.05;52.50;102146.79;470431;113;921518;-73
2021/09/07 05:21:57;;;;;;;;;;;;;;;12.08;52.25;102145.55;469938;112;921570;-73
2021/09/07 05:23:00;;;;;;;;;;;;;;;12.09;52.17;102149.99;470100;113;921533;-71
2021/09/07 05:24:04;;;;;;;;;;;;;;;12.10;52.22;102147.08;471097;113;921599;-74